Christchurch, United Kingdom
Current Conditions -  °F | °C
As of 8:20 AM on Friday 28 Nov 2014 (Local Time) from EGHH Reporting Station
Broken Clouds Broken Clouds  
Wind Chill: 52°   Ceiling: 1100
Heat Index: 52°   Visibility: 6mi
Dew Point: 48°   Wind: 10mph
Humidity: 88%   Direction: 70°ENE
Pressure: 29.5"   Gusts: NA
Location:  50.77°N, 1.78°W
Report Text: EGHH 280820Z 07009KT 9999 BKN011 11/09 Q0999
Loading
Personal Weather Stations






























Interactive Weather Map New forecast layout! Learn more

10-Day Weather Forecast

Advertisements
Track Severe Weather on mobile